sensor_id;sensor_type;location;lat;lon;timestamp;P1;durP1;ratioP1;P2;durP2;ratioP2
6564;SDS011;3316;44.118;27.258;2023-06-22T00:01:08;21.52;;;17.38;;
6564;SDS011;3316;44.118;27.258;2023-06-22T00:03:34;25.83;;;17.50;;
6564;SDS011;3316;44.118;27.258;2023-06-22T00:05:59;29.13;;;19.25;;
6564;SDS011;3316;44.118;27.258;2023-06-22T00:08:24;22.42;;;17.40;;
6564;SDS011;3316;44.118;27.258;2023-06-22T00:10:50;29.73;;;17.52;;
6564;SDS011;3316;44.118;27.258;2023-06-22T00:13:16;25.38;;;18.17;;
6564;SDS011;3316;44.118;27.258;2023-06-22T00:15:42;29.95;;;19.02;;
6564;SDS011;3316;44.118;27.258;2023-06-22T00:18:09;25.00;;;18.33;;
6564;SDS011;3316;44.118;27.258;2023-06-22T00:20:35;31.63;;;18.65;;
6564;SDS011;3316;44.118;27.258;2023-06-22T00:23:05;32.00;;;19.13;;
6564;SDS011;3316;44.118;27.258;2023-06-22T00:25:39;21.30;;;16.90;;
6564;SDS011;3316;44.118;27.258;2023-06-22T00:28:06;21.35;;;18.50;;
6564;SDS011;3316;44.118;27.258;2023-06-22T00:30:32;27.73;;;17.73;;
6564;SDS011;3316;44.118;27.258;2023-06-22T00:32:58;25.77;;;18.88;;
6564;SDS011;3316;44.118;27.258;2023-06-22T00:35:24;29.52;;;18.38;;
6564;SDS011;3316;44.118;27.258;2023-06-22T00:37:56;21.38;;;17.67;;
6564;SDS011;3316;44.118;27.258;2023-06-22T00:40:29;25.52;;;17.23;;
6564;SDS011;3316;44.118;27.258;2023-06-22T00:42:58;25.20;;;16.40;;
6564;SDS011;3316;44.118;27.258;2023-06-22T00:45:24;24.35;;;17.75;;
6564;SDS011;3316;44.118;27.258;2023-06-22T00:47:53;20.73;;;16.75;;
6564;SDS011;3316;44.118;27.258;2023-06-22T00:50:24;21.17;;;16.25;;
6564;SDS011;3316;44.118;27.258;2023-06-22T00:52:52;21.85;;;16.23;;
6564;SDS011;3316;44.118;27.258;2023-06-22T00:55:22;21.75;;;17.05;;
6564;SDS011;3316;44.118;27.258;2023-06-22T00:57:48;20.75;;;16.75;;
6564;SDS011;3316;44.118;27.258;2023-06-22T01:00:14;22.75;;;17.48;;
6564;SDS011;3316;44.118;27.258;2023-06-22T01:02:45;20.80;;;15.65;;
6564;SDS011;3316;44.118;27.258;2023-06-22T01:05:14;23.40;;;17.10;;
6564;SDS011;3316;44.118;27.258;2023-06-22T01:07:44;27.95;;;17.95;;
6564;SDS011;3316;44.118;27.258;2023-06-22T01:13:06;23.75;;;16.80;;
6564;SDS011;3316;44.118;27.258;2023-06-22T01:15:40;22.42;;;16.50;;
6564;SDS011;3316;44.118;27.258;2023-06-22T01:18:21;22.58;;;17.17;;
6564;SDS011;3316;44.118;27.258;2023-06-22T01:20:51;21.17;;;16.55;;
6564;SDS011;3316;44.118;27.258;2023-06-22T01:25:59;26.35;;;16.83;;
6564;SDS011;3316;44.118;27.258;2023-06-22T01:31:10;23.35;;;16.23;;
6564;SDS011;3316;44.118;27.258;2023-06-22T01:33:39;26.70;;;17.33;;
6564;SDS011;3316;44.118;27.258;2023-06-22T01:36:07;27.40;;;16.23;;
6564;SDS011;3316;44.118;27.258;2023-06-22T01:38:34;25.88;;;16.95;;
6564;SDS011;3316;44.118;27.258;2023-06-22T01:41:00;27.38;;;16.13;;
6564;SDS011;3316;44.118;27.258;2023-06-22T01:43:27;22.55;;;17.05;;
6564;SDS011;3316;44.118;27.258;2023-06-22T01:45:54;25.33;;;17.10;;
6564;SDS011;3316;44.118;27.258;2023-06-22T01:48:20;27.90;;;17.52;;
6564;SDS011;3316;44.118;27.258;2023-06-22T01:50:47;23.42;;;16.75;;
6564;SDS011;3316;44.118;27.258;2023-06-22T01:53:12;28.48;;;18.15;;
6564;SDS011;3316;44.118;27.258;2023-06-22T01:55:38;28.67;;;19.13;;
6564;SDS011;3316;44.118;27.258;2023-06-22T01:58:03;26.65;;;17.42;;
6564;SDS011;3316;44.118;27.258;2023-06-22T02:00:30;29.27;;;18.35;;
6564;SDS011;3316;44.118;27.258;2023-06-22T02:03:00;25.95;;;18.17;;
6564;SDS011;3316;44.118;27.258;2023-06-22T02:05:37;28.40;;;18.65;;
6564;SDS011;3316;44.118;27.258;2023-06-22T02:08:21;24.67;;;18.20;;
6564;SDS011;3316;44.118;27.258;2023-06-22T02:10:49;28.65;;;17.67;;
6564;SDS011;3316;44.118;27.258;2023-06-22T02:13:16;28.42;;;17.98;;
6564;SDS011;3316;44.118;27.258;2023-06-22T02:15:42;27.20;;;18.48;;
6564;SDS011;3316;44.118;27.258;2023-06-22T02:18:08;26.08;;;17.35;;
6564;SDS011;3316;44.118;27.258;2023-06-22T02:20:37;21.00;;;16.77;;
6564;SDS011;3316;44.118;27.258;2023-06-22T02:23:03;30.73;;;18.65;;
6564;SDS011;3316;44.118;27.258;2023-06-22T02:25:29;25.58;;;18.35;;
6564;SDS011;3316;44.118;27.258;2023-06-22T02:27:55;31.55;;;18.30;;
6564;SDS011;3316;44.118;27.258;2023-06-22T02:30:20;21.00;;;17.35;;
6564;SDS011;3316;44.118;27.258;2023-06-22T02:32:45;23.20;;;17.23;;
6564;SDS011;3316;44.118;27.258;2023-06-22T02:35:11;30.70;;;17.35;;
6564;SDS011;3316;44.118;27.258;2023-06-22T02:37:37;28.65;;;17.73;;
6564;SDS011;3316;44.118;27.258;2023-06-22T02:40:09;26.67;;;17.85;;
6564;SDS011;3316;44.118;27.258;2023-06-22T02:42:35;26.20;;;16.85;;
6564;SDS011;3316;44.118;27.258;2023-06-22T02:45:02;30.70;;;18.27;;
6564;SDS011;3316;44.118;27.258;2023-06-22T02:47:27;25.67;;;18.02;;
6564;SDS011;3316;44.118;27.258;2023-06-22T02:49:53;24.75;;;17.98;;
6564;SDS011;3316;44.118;27.258;2023-06-22T02:52:18;32.53;;;19.35;;
6564;SDS011;3316;44.118;27.258;2023-06-22T02:54:44;31.95;;;17.83;;
6564;SDS011;3316;44.118;27.258;2023-06-22T02:57:11;23.05;;;17.02;;
6564;SDS011;3316;44.118;27.258;2023-06-22T02:59:39;28.90;;;18.13;;
6564;SDS011;3316;44.118;27.258;2023-06-22T03:02:07;23.65;;;17.48;;
6564;SDS011;3316;44.118;27.258;2023-06-22T03:04:34;21.35;;;16.63;;
6564;SDS011;3316;44.118;27.258;2023-06-22T03:07:00;27.08;;;17.52;;
6564;SDS011;3316;44.118;27.258;2023-06-22T03:09:26;27.65;;;17.45;;
6564;SDS011;3316;44.118;27.258;2023-06-22T03:11:56;24.55;;;17.98;;
6564;SDS011;3316;44.118;27.258;2023-06-22T03:14:21;23.75;;;16.70;;
6564;SDS011;3316;44.118;27.258;2023-06-22T03:16:47;20.60;;;16.30;;
6564;SDS011;3316;44.118;27.258;2023-06-22T03:19:12;21.98;;;16.20;;
6564;SDS011;3316;44.118;27.258;2023-06-22T03:21:39;27.90;;;16.65;;
6564;SDS011;3316;44.118;27.258;2023-06-22T03:24:05;31.20;;;17.80;;
6564;SDS011;3316;44.118;27.258;2023-06-22T03:26:31;23.83;;;15.93;;
6564;SDS011;3316;44.118;27.258;2023-06-22T03:28:57;19.67;;;14.95;;
6564;SDS011;3316;44.118;27.258;2023-06-22T03:31:22;24.42;;;15.07;;
6564;SDS011;3316;44.118;27.258;2023-06-22T03:33:48;20.90;;;14.55;;
6564;SDS011;3316;44.118;27.258;2023-06-22T03:36:15;25.88;;;16.13;;
6564;SDS011;3316;44.118;27.258;2023-06-22T03:38:47;21.42;;;14.90;;
6564;SDS011;3316;44.118;27.258;2023-06-22T03:41:14;18.48;;;14.48;;
6564;SDS011;3316;44.118;27.258;2023-06-22T03:43:39;23.90;;;14.73;;
6564;SDS011;3316;44.118;27.258;2023-06-22T03:46:05;26.33;;;15.05;;
6564;SDS011;3316;44.118;27.258;2023-06-22T03:48:30;28.60;;;15.02;;
6564;SDS011;3316;44.118;27.258;2023-06-22T03:50:56;24.05;;;15.27;;
6564;SDS011;3316;44.118;27.258;2023-06-22T03:53:22;28.25;;;16.42;;
6564;SDS011;3316;44.118;27.258;2023-06-22T03:55:48;23.50;;;14.18;;
6564;SDS011;3316;44.118;27.258;2023-06-22T03:58:15;21.60;;;14.70;;
6564;SDS011;3316;44.118;27.258;2023-06-22T04:00:41;28.10;;;14.98;;
6564;SDS011;3316;44.118;27.258;2023-06-22T04:03:06;22.27;;;15.52;;
6564;SDS011;3316;44.118;27.258;2023-06-22T04:05:32;22.42;;;13.93;;
6564;SDS011;3316;44.118;27.258;2023-06-22T04:07:58;23.80;;;14.05;;
6564;SDS011;3316;44.118;27.258;2023-06-22T04:10:23;19.65;;;13.20;;
6564;SDS011;3316;44.118;27.258;2023-06-22T04:12:49;16.17;;;13.35;;
6564;SDS011;3316;44.118;27.258;2023-06-22T04:15:14;36.30;;;20.13;;
6564;SDS011;3316;44.118;27.258;2023-06-22T04:17:39;27.40;;;14.40;;
6564;SDS011;3316;44.118;27.258;2023-06-22T04:20:05;25.83;;;16.48;;
6564;SDS011;3316;44.118;27.258;2023-06-22T04:22:32;20.25;;;13.85;;
6564;SDS011;3316;44.118;27.258;2023-06-22T04:24:57;21.15;;;11.73;;
6564;SDS011;3316;44.118;27.258;2023-06-22T04:27:22;25.30;;;12.43;;
6564;SDS011;3316;44.118;27.258;2023-06-22T04:29:48;17.50;;;12.13;;
6564;SDS011;3316;44.118;27.258;2023-06-22T04:32:17;18.30;;;13.05;;
6564;SDS011;3316;44.118;27.258;2023-06-22T04:34:43;15.40;;;10.80;;
6564;SDS011;3316;44.118;27.258;2023-06-22T04:37:09;14.70;;;10.70;;
6564;SDS011;3316;44.118;27.258;2023-06-22T04:39:34;17.65;;;11.48;;
6564;SDS011;3316;44.118;27.258;2023-06-22T04:42:00;17.67;;;12.15;;
6564;SDS011;3316;44.118;27.258;2023-06-22T04:44:26;18.65;;;12.38;;
6564;SDS011;3316;44.118;27.258;2023-06-22T04:46:56;19.33;;;10.95;;
6564;SDS011;3316;44.118;27.258;2023-06-22T04:49:25;24.30;;;14.23;;
6564;SDS011;3316;44.118;27.258;2023-06-22T04:51:58;27.75;;;14.77;;
6564;SDS011;3316;44.118;27.258;2023-06-22T04:54:24;25.63;;;15.35;;
6564;SDS011;3316;44.118;27.258;2023-06-22T04:56:49;17.60;;;13.00;;
6564;SDS011;3316;44.118;27.258;2023-06-22T04:59:22;23.42;;;12.32;;
6564;SDS011;3316;44.118;27.258;2023-06-22T05:01:54;30.05;;;15.70;;
6564;SDS011;3316;44.118;27.258;2023-06-22T05:04:20;23.05;;;13.05;;
6564;SDS011;3316;44.118;27.258;2023-06-22T05:06:47;29.35;;;14.80;;
6564;SDS011;3316;44.118;27.258;2023-06-22T05:09:13;25.92;;;14.32;;
6564;SDS011;3316;44.118;27.258;2023-06-22T05:11:38;18.98;;;13.52;;
6564;SDS011;3316;44.118;27.258;2023-06-22T05:14:03;17.77;;;11.68;;
6564;SDS011;3316;44.118;27.258;2023-06-22T05:16:29;19.10;;;12.70;;
6564;SDS011;3316;44.118;27.258;2023-06-22T05:18:55;17.58;;;12.38;;
6564;SDS011;3316;44.118;27.258;2023-06-22T05:21:21;17.10;;;11.55;;
6564;SDS011;3316;44.118;27.258;2023-06-22T05:23:55;17.20;;;12.43;;
6564;SDS011;3316;44.118;27.258;2023-06-22T05:26:25;16.05;;;11.82;;
6564;SDS011;3316;44.118;27.258;2023-06-22T05:28:51;16.35;;;11.73;;
6564;SDS011;3316;44.118;27.258;2023-06-22T05:31:17;19.38;;;13.60;;
6564;SDS011;3316;44.118;27.258;2023-06-22T05:33:44;14.60;;;12.02;;
6564;SDS011;3316;44.118;27.258;2023-06-22T05:36:10;26.37;;;15.90;;
6564;SDS011;3316;44.118;27.258;2023-06-22T05:38:37;21.65;;;13.43;;
6564;SDS011;3316;44.118;27.258;2023-06-22T05:41:03;18.52;;;12.77;;
6564;SDS011;3316;44.118;27.258;2023-06-22T05:43:29;14.95;;;12.07;;
6564;SDS011;3316;44.118;27.258;2023-06-22T05:45:54;18.13;;;13.15;;
6564;SDS011;3316;44.118;27.258;2023-06-22T05:48:20;20.15;;;13.32;;
6564;SDS011;3316;44.118;27.258;2023-06-22T05:50:45;15.60;;;11.07;;
6564;SDS011;3316;44.118;27.258;2023-06-22T05:53:11;16.35;;;11.90;;
6564;SDS011;3316;44.118;27.258;2023-06-22T05:55:36;19.05;;;10.73;;
6564;SDS011;3316;44.118;27.258;2023-06-22T05:58:02;15.32;;;11.50;;
6564;SDS011;3316;44.118;27.258;2023-06-22T06:00:28;13.38;;;11.15;;
6564;SDS011;3316;44.118;27.258;2023-06-22T06:02:54;16.38;;;12.25;;
6564;SDS011;3316;44.118;27.258;2023-06-22T06:05:19;16.58;;;11.82;;
6564;SDS011;3316;44.118;27.258;2023-06-22T06:07:45;16.73;;;12.10;;
6564;SDS011;3316;44.118;27.258;2023-06-22T06:10:11;14.18;;;11.30;;
6564;SDS011;3316;44.118;27.258;2023-06-22T06:12:37;17.77;;;11.60;;
6564;SDS011;3316;44.118;27.258;2023-06-22T06:15:03;12.65;;;10.70;;
6564;SDS011;3316;44.118;27.258;2023-06-22T06:17:30;14.90;;;11.32;;
6564;SDS011;3316;44.118;27.258;2023-06-22T06:19:55;35.28;;;18.67;;
6564;SDS011;3316;44.118;27.258;2023-06-22T06:22:21;20.10;;;14.13;;
6564;SDS011;3316;44.118;27.258;2023-06-22T06:24:48;17.33;;;10.70;;
6564;SDS011;3316;44.118;27.258;2023-06-22T06:27:14;45.72;;;22.38;;
6564;SDS011;3316;44.118;27.258;2023-06-22T06:29:40;17.92;;;12.02;;
6564;SDS011;3316;44.118;27.258;2023-06-22T06:32:05;13.43;;;11.10;;
6564;SDS011;3316;44.118;27.258;2023-06-22T06:34:31;13.50;;;10.48;;
6564;SDS011;3316;44.118;27.258;2023-06-22T06:36:57;15.77;;;11.45;;
6564;SDS011;3316;44.118;27.258;2023-06-22T06:39:22;13.35;;;11.10;;
6564;SDS011;3316;44.118;27.258;2023-06-22T06:41:48;15.40;;;10.75;;
6564;SDS011;3316;44.118;27.258;2023-06-22T06:44:13;16.23;;;10.95;;
6564;SDS011;3316;44.118;27.258;2023-06-22T06:46:39;32.38;;;16.35;;
6564;SDS011;3316;44.118;27.258;2023-06-22T06:49:04;16.83;;;11.20;;
6564;SDS011;3316;44.118;27.258;2023-06-22T06:51:30;15.23;;;11.00;;
6564;SDS011;3316;44.118;27.258;2023-06-22T06:53:55;12.55;;;10.85;;
6564;SDS011;3316;44.118;27.258;2023-06-22T06:56:21;16.13;;;9.68;;
6564;SDS011;3316;44.118;27.258;2023-06-22T06:58:46;13.30;;;10.70;;
6564;SDS011;3316;44.118;27.258;2023-06-22T07:01:14;12.25;;;9.35;;
6564;SDS011;3316;44.118;27.258;2023-06-22T07:03:40;10.23;;;9.10;;
6564;SDS011;3316;44.118;27.258;2023-06-22T07:06:05;14.65;;;9.57;;
6564;SDS011;3316;44.118;27.258;2023-06-22T07:08:31;16.95;;;10.10;;
6564;SDS011;3316;44.118;27.258;2023-06-22T07:10:56;14.05;;;9.10;;
6564;SDS011;3316;44.118;27.258;2023-06-22T07:13:22;15.90;;;13.05;;
6564;SDS011;3316;44.118;27.258;2023-06-22T07:15:47;13.98;;;11.15;;
6564;SDS011;3316;44.118;27.258;2023-06-22T07:18:13;15.65;;;11.32;;
6564;SDS011;3316;44.118;27.258;2023-06-22T07:20:38;15.10;;;10.82;;
6564;SDS011;3316;44.118;27.258;2023-06-22T07:23:04;37.22;;;20.05;;
6564;SDS011;3316;44.118;27.258;2023-06-22T07:25:30;17.90;;;10.77;;
6564;SDS011;3316;44.118;27.258;2023-06-22T07:30:31;13.10;;;9.15;;
6564;SDS011;3316;44.118;27.258;2023-06-22T07:32:58;12.95;;;8.43;;
6564;SDS011;3316;44.118;27.258;2023-06-22T07:35:28;12.60;;;9.60;;
6564;SDS011;3316;44.118;27.258;2023-06-22T07:37:54;12.65;;;9.25;;
6564;SDS011;3316;44.118;27.258;2023-06-22T07:40:19;14.80;;;8.98;;
6564;SDS011;3316;44.118;27.258;2023-06-22T07:42:45;11.68;;;8.98;;
6564;SDS011;3316;44.118;27.258;2023-06-22T07:45:16;9.52;;;8.07;;
6564;SDS011;3316;44.118;27.258;2023-06-22T07:47:41;12.65;;;8.45;;
6564;SDS011;3316;44.118;27.258;2023-06-22T07:50:07;13.80;;;9.02;;
6564;SDS011;3316;44.118;27.258;2023-06-22T07:52:32;14.13;;;9.50;;
6564;SDS011;3316;44.118;27.258;2023-06-22T07:54:58;14.73;;;10.02;;
6564;SDS011;3316;44.118;27.258;2023-06-22T07:57:23;14.35;;;8.80;;
6564;SDS011;3316;44.118;27.258;2023-06-22T07:59:57;16.15;;;9.30;;
6564;SDS011;3316;44.118;27.258;2023-06-22T08:02:22;15.55;;;10.60;;
6564;SDS011;3316;44.118;27.258;2023-06-22T08:04:48;15.02;;;9.20;;
6564;SDS011;3316;44.118;27.258;2023-06-22T08:07:13;19.88;;;9.45;;
6564;SDS011;3316;44.118;27.258;2023-06-22T08:09:39;9.57;;;7.82;;
6564;SDS011;3316;44.118;27.258;2023-06-22T08:12:12;14.32;;;8.45;;
6564;SDS011;3316;44.118;27.258;2023-06-22T08:14:38;14.70;;;9.45;;
6564;SDS011;3316;44.118;27.258;2023-06-22T08:17:03;11.50;;;8.70;;
6564;SDS011;3316;44.118;27.258;2023-06-22T08:19:29;9.18;;;7.35;;
6564;SDS011;3316;44.118;27.258;2023-06-22T08:21:54;12.30;;;8.10;;
6564;SDS011;3316;44.118;27.258;2023-06-22T08:24:20;11.82;;;8.25;;
6564;SDS011;3316;44.118;27.258;2023-06-22T08:26:45;10.70;;;7.45;;
6564;SDS011;3316;44.118;27.258;2023-06-22T08:29:11;8.95;;;7.50;;
6564;SDS011;3316;44.118;27.258;2023-06-22T08:31:37;12.35;;;8.52;;
6564;SDS011;3316;44.118;27.258;2023-06-22T08:34:02;16.05;;;10.07;;
6564;SDS011;3316;44.118;27.258;2023-06-22T08:36:28;13.23;;;8.70;;
6564;SDS011;3316;44.118;27.258;2023-06-22T08:38:55;30.63;;;16.92;;
6564;SDS011;3316;44.118;27.258;2023-06-22T08:41:27;11.30;;;8.40;;
6564;SDS011;3316;44.118;27.258;2023-06-22T08:43:53;20.45;;;11.95;;
6564;SDS011;3316;44.118;27.258;2023-06-22T08:46:19;10.13;;;7.72;;
6564;SDS011;3316;44.118;27.258;2023-06-22T08:48:48;13.77;;;9.05;;
6564;SDS011;3316;44.118;27.258;2023-06-22T08:51:14;11.60;;;8.40;;
6564;SDS011;3316;44.118;27.258;2023-06-22T08:53:39;8.30;;;7.30;;
6564;SDS011;3316;44.118;27.258;2023-06-22T08:56:05;11.57;;;8.75;;
6564;SDS011;3316;44.118;27.258;2023-06-22T08:58:30;42.10;;;20.30;;
6564;SDS011;3316;44.118;27.258;2023-06-22T09:00:55;13.27;;;9.55;;
6564;SDS011;3316;44.118;27.258;2023-06-22T09:03:21;13.75;;;8.20;;
6564;SDS011;3316;44.118;27.258;2023-06-22T09:05:46;15.75;;;10.75;;
6564;SDS011;3316;44.118;27.258;2023-06-22T09:08:12;12.55;;;7.55;;
6564;SDS011;3316;44.118;27.258;2023-06-22T09:10:37;9.35;;;7.57;;
6564;SDS011;3316;44.118;27.258;2023-06-22T09:13:03;12.43;;;8.23;;
6564;SDS011;3316;44.118;27.258;2023-06-22T09:15:28;13.18;;;9.18;;
6564;SDS011;3316;44.118;27.258;2023-06-22T09:17:54;11.55;;;7.57;;
6564;SDS011;3316;44.118;27.258;2023-06-22T09:20:20;10.35;;;7.57;;
6564;SDS011;3316;44.118;27.258;2023-06-22T09:22:45;8.20;;;6.60;;
6564;SDS011;3316;44.118;27.258;2023-06-22T09:25:11;7.93;;;6.90;;
6564;SDS011;3316;44.118;27.258;2023-06-22T09:27:37;8.52;;;6.95;;
6564;SDS011;3316;44.118;27.258;2023-06-22T09:30:03;18.17;;;10.60;;
6564;SDS011;3316;44.118;27.258;2023-06-22T09:32:29;32.28;;;15.85;;
6564;SDS011;3316;44.118;27.258;2023-06-22T09:34:54;8.20;;;6.93;;
6564;SDS011;3316;44.118;27.258;2023-06-22T09:37:20;9.90;;;6.93;;
6564;SDS011;3316;44.118;27.258;2023-06-22T09:39:45;15.50;;;9.00;;
6564;SDS011;3316;44.118;27.258;2023-06-22T09:42:11;10.63;;;8.43;;
6564;SDS011;3316;44.118;27.258;2023-06-22T09:44:38;9.95;;;6.90;;
6564;SDS011;3316;44.118;27.258;2023-06-22T09:47:04;10.23;;;6.75;;
6564;SDS011;3316;44.118;27.258;2023-06-22T09:49:29;7.82;;;5.93;;
6564;SDS011;3316;44.118;27.258;2023-06-22T09:51:55;8.57;;;6.13;;
6564;SDS011;3316;44.118;27.258;2023-06-22T09:54:21;10.18;;;7.20;;
6564;SDS011;3316;44.118;27.258;2023-06-22T09:56:46;13.32;;;7.38;;
6564;SDS011;3316;44.118;27.258;2023-06-22T09:59:11;7.03;;;6.40;;
6564;SDS011;3316;44.118;27.258;2023-06-22T10:01:37;14.32;;;6.82;;
6564;SDS011;3316;44.118;27.258;2023-06-22T10:04:02;8.10;;;6.93;;
6564;SDS011;3316;44.118;27.258;2023-06-22T10:06:28;9.52;;;7.10;;
6564;SDS011;3316;44.118;27.258;2023-06-22T10:08:57;9.43;;;6.18;;
6564;SDS011;3316;44.118;27.258;2023-06-22T10:11:23;7.95;;;6.28;;
6564;SDS011;3316;44.118;27.258;2023-06-22T10:13:54;10.50;;;6.47;;
6564;SDS011;3316;44.118;27.258;2023-06-22T10:16:19;9.20;;;6.50;;
6564;SDS011;3316;44.118;27.258;2023-06-22T10:18:45;11.40;;;6.40;;
6564;SDS011;3316;44.118;27.258;2023-06-22T10:21:10;6.82;;;6.18;;
6564;SDS011;3316;44.118;27.258;2023-06-22T10:23:36;10.73;;;6.10;;
6564;SDS011;3316;44.118;27.258;2023-06-22T10:26:01;7.47;;;6.70;;
6564;SDS011;3316;44.118;27.258;2023-06-22T10:28:27;8.32;;;5.53;;
6564;SDS011;3316;44.118;27.258;2023-06-22T10:30:52;6.55;;;5.88;;
6564;SDS011;3316;44.118;27.258;2023-06-22T10:33:18;7.43;;;6.70;;
6564;SDS011;3316;44.118;27.258;2023-06-22T10:35:43;8.05;;;5.80;;
6564;SDS011;3316;44.118;27.258;2023-06-22T10:38:09;9.95;;;6.15;;
6564;SDS011;3316;44.118;27.258;2023-06-22T10:40:35;7.55;;;6.07;;
6564;SDS011;3316;44.118;27.258;2023-06-22T10:43:00;8.15;;;6.82;;
6564;SDS011;3316;44.118;27.258;2023-06-22T10:45:26;7.45;;;6.47;;
6564;SDS011;3316;44.118;27.258;2023-06-22T10:47:52;13.48;;;7.28;;
6564;SDS011;3316;44.118;27.258;2023-06-22T10:50:18;11.98;;;7.22;;
6564;SDS011;3316;44.118;27.258;2023-06-22T10:52:43;20.15;;;11.55;;
6564;SDS011;3316;44.118;27.258;2023-06-22T10:55:09;41.05;;;21.35;;
6564;SDS011;3316;44.118;27.258;2023-06-22T10:57:35;9.20;;;6.50;;
6564;SDS011;3316;44.118;27.258;2023-06-22T11:00:01;6.55;;;5.95;;
6564;SDS011;3316;44.118;27.258;2023-06-22T11:02:29;16.65;;;12.45;;
6564;SDS011;3316;44.118;27.258;2023-06-22T11:04:54;9.25;;;5.95;;
6564;SDS011;3316;44.118;27.258;2023-06-22T11:07:20;11.18;;;7.82;;
6564;SDS011;3316;44.118;27.258;2023-06-22T11:09:45;9.57;;;7.75;;
6564;SDS011;3316;44.118;27.258;2023-06-22T11:12:11;6.50;;;5.85;;
6564;SDS011;3316;44.118;27.258;2023-06-22T11:14:36;6.63;;;5.75;;
6564;SDS011;3316;44.118;27.258;2023-06-22T11:17:02;7.57;;;5.35;;
6564;SDS011;3316;44.118;27.258;2023-06-22T11:19:27;6.10;;;5.47;;
6564;SDS011;3316;44.118;27.258;2023-06-22T11:21:53;7.85;;;6.00;;
6564;SDS011;3316;44.118;27.258;2023-06-22T11:24:18;9.00;;;6.22;;
6564;SDS011;3316;44.118;27.258;2023-06-22T11:26:43;11.60;;;7.07;;
6564;SDS011;3316;44.118;27.258;2023-06-22T11:29:09;9.45;;;6.85;;
6564;SDS011;3316;44.118;27.258;2023-06-22T11:31:35;8.10;;;5.95;;
6564;SDS011;3316;44.118;27.258;2023-06-22T11:34:01;11.40;;;6.88;;
6564;SDS011;3316;44.118;27.258;2023-06-22T11:36:27;9.77;;;6.40;;
6564;SDS011;3316;44.118;27.258;2023-06-22T11:38:57;20.50;;;10.52;;
6564;SDS011;3316;44.118;27.258;2023-06-22T11:41:23;10.38;;;6.95;;
6564;SDS011;3316;44.118;27.258;2023-06-22T11:43:48;9.75;;;6.10;;
6564;SDS011;3316;44.118;27.258;2023-06-22T11:46:14;7.80;;;5.50;;
6564;SDS011;3316;44.118;27.258;2023-06-22T11:48:39;22.85;;;13.27;;
6564;SDS011;3316;44.118;27.258;2023-06-22T11:51:05;59.28;;;28.85;;
6564;SDS011;3316;44.118;27.258;2023-06-22T11:53:31;8.07;;;6.35;;
6564;SDS011;3316;44.118;27.258;2023-06-22T11:55:56;11.25;;;5.90;;
6564;SDS011;3316;44.118;27.258;2023-06-22T11:58:22;5.82;;;5.22;;
6564;SDS011;3316;44.118;27.258;2023-06-22T12:00:48;9.10;;;5.05;;
6564;SDS011;3316;44.118;27.258;2023-06-22T12:03:14;12.25;;;5.72;;
6564;SDS011;3316;44.118;27.258;2023-06-22T12:05:42;7.78;;;5.38;;
6564;SDS011;3316;44.118;27.258;2023-06-22T12:08:08;6.68;;;5.93;;
6564;SDS011;3316;44.118;27.258;2023-06-22T12:10:33;7.00;;;5.47;;
6564;SDS011;3316;44.118;27.258;2023-06-22T12:12:59;10.35;;;5.88;;
6564;SDS011;3316;44.118;27.258;2023-06-22T12:15:25;7.00;;;5.80;;
6564;SDS011;3316;44.118;27.258;2023-06-22T12:17:51;6.65;;;5.43;;
6564;SDS011;3316;44.118;27.258;2023-06-22T12:20:17;6.70;;;6.00;;
6564;SDS011;3316;44.118;27.258;2023-06-22T12:22:43;12.77;;;7.10;;
6564;SDS011;3316;44.118;27.258;2023-06-22T12:25:09;28.20;;;13.68;;
6564;SDS011;3316;44.118;27.258;2023-06-22T12:27:35;12.27;;;8.93;;
6564;SDS011;3316;44.118;27.258;2023-06-22T12:30:01;10.55;;;8.18;;
6564;SDS011;3316;44.118;27.258;2023-06-22T12:32:27;12.88;;;7.55;;
6564;SDS011;3316;44.118;27.258;2023-06-22T12:34:53;37.30;;;19.92;;
6564;SDS011;3316;44.118;27.258;2023-06-22T12:37:19;15.05;;;8.27;;
6564;SDS011;3316;44.118;27.258;2023-06-22T12:39:44;7.65;;;5.55;;
6564;SDS011;3316;44.118;27.258;2023-06-22T12:42:10;12.23;;;8.20;;
6564;SDS011;3316;44.118;27.258;2023-06-22T12:44:37;9.10;;;6.30;;
6564;SDS011;3316;44.118;27.258;2023-06-22T12:47:04;12.38;;;6.75;;
6564;SDS011;3316;44.118;27.258;2023-06-22T12:49:30;7.53;;;5.72;;
6564;SDS011;3316;44.118;27.258;2023-06-22T12:51:56;13.90;;;7.88;;
6564;SDS011;3316;44.118;27.258;2023-06-22T12:54:22;5.93;;;5.05;;
6564;SDS011;3316;44.118;27.258;2023-06-22T12:56:47;7.05;;;5.25;;
6564;SDS011;3316;44.118;27.258;2023-06-22T12:59:13;6.47;;;5.82;;
6564;SDS011;3316;44.118;27.258;2023-06-22T13:01:38;11.40;;;7.22;;
6564;SDS011;3316;44.118;27.258;2023-06-22T13:04:04;6.78;;;5.50;;
6564;SDS011;3316;44.118;27.258;2023-06-22T13:06:30;6.07;;;5.13;;
6564;SDS011;3316;44.118;27.258;2023-06-22T13:08:55;8.27;;;5.93;;
6564;SDS011;3316;44.118;27.258;2023-06-22T13:11:21;9.93;;;6.78;;
6564;SDS011;3316;44.118;27.258;2023-06-22T13:13:46;7.82;;;5.95;;
6564;SDS011;3316;44.118;27.258;2023-06-22T13:16:12;6.85;;;5.75;;
6564;SDS011;3316;44.118;27.258;2023-06-22T13:18:38;6.75;;;5.10;;
6564;SDS011;3316;44.118;27.258;2023-06-22T13:21:03;5.97;;;5.38;;
6564;SDS011;3316;44.118;27.258;2023-06-22T13:23:29;6.20;;;5.60;;
6564;SDS011;3316;44.118;27.258;2023-06-22T13:25:57;8.52;;;7.22;;
6564;SDS011;3316;44.118;27.258;2023-06-22T13:28:23;10.18;;;7.03;;
6564;SDS011;3316;44.118;27.258;2023-06-22T13:30:48;19.50;;;12.02;;
6564;SDS011;3316;44.118;27.258;2023-06-22T13:33:14;15.80;;;9.55;;
6564;SDS011;3316;44.118;27.258;2023-06-22T13:35:40;30.27;;;15.10;;
6564;SDS011;3316;44.118;27.258;2023-06-22T13:38:07;23.65;;;9.88;;
6564;SDS011;3316;44.118;27.258;2023-06-22T13:40:33;8.88;;;6.15;;
6564;SDS011;3316;44.118;27.258;2023-06-22T13:42:59;39.85;;;20.50;;
6564;SDS011;3316;44.118;27.258;2023-06-22T13:45:25;54.25;;;23.35;;
6564;SDS011;3316;44.118;27.258;2023-06-22T13:47:51;9.20;;;6.40;;
6564;SDS011;3316;44.118;27.258;2023-06-22T13:50:16;10.75;;;7.45;;
6564;SDS011;3316;44.118;27.258;2023-06-22T13:52:42;15.43;;;6.15;;
6564;SDS011;3316;44.118;27.258;2023-06-22T13:55:08;11.32;;;6.63;;
6564;SDS011;3316;44.118;27.258;2023-06-22T13:57:34;6.43;;;5.15;;
6564;SDS011;3316;44.118;27.258;2023-06-22T14:00:00;7.07;;;5.28;;
6564;SDS011;3316;44.118;27.258;2023-06-22T14:02:26;9.15;;;5.70;;
6564;SDS011;3316;44.118;27.258;2023-06-22T14:04:53;7.85;;;6.80;;
6564;SDS011;3316;44.118;27.258;2023-06-22T14:07:18;7.95;;;6.28;;
6564;SDS011;3316;44.118;27.258;2023-06-22T14:09:46;10.32;;;8.88;;
6564;SDS011;3316;44.118;27.258;2023-06-22T14:12:12;8.32;;;5.60;;
6564;SDS011;3316;44.118;27.258;2023-06-22T14:14:38;6.65;;;4.65;;
6564;SDS011;3316;44.118;27.258;2023-06-22T14:17:03;20.08;;;13.10;;
6564;SDS011;3316;44.118;27.258;2023-06-22T14:19:30;30.58;;;21.75;;
6564;SDS011;3316;44.118;27.258;2023-06-22T14:21:55;13.27;;;9.60;;
6564;SDS011;3316;44.118;27.258;2023-06-22T14:24:22;9.30;;;6.30;;
6564;SDS011;3316;44.118;27.258;2023-06-22T14:26:47;7.57;;;5.60;;
6564;SDS011;3316;44.118;27.258;2023-06-22T14:29:13;56.80;;;26.77;;
6564;SDS011;3316;44.118;27.258;2023-06-22T14:31:38;58.75;;;25.10;;
6564;SDS011;3316;44.118;27.258;2023-06-22T14:34:04;17.85;;;9.73;;
6564;SDS011;3316;44.118;27.258;2023-06-22T14:36:31;12.45;;;6.53;;
6564;SDS011;3316;44.118;27.258;2023-06-22T14:38:56;21.17;;;11.45;;
6564;SDS011;3316;44.118;27.258;2023-06-22T14:41:22;7.72;;;5.70;;
6564;SDS011;3316;44.118;27.258;2023-06-22T14:43:47;7.50;;;6.30;;
6564;SDS011;3316;44.118;27.258;2023-06-22T14:46:14;6.55;;;5.40;;
6564;SDS011;3316;44.118;27.258;2023-06-22T14:48:41;5.40;;;4.90;;